Lafitte, Louisiana
Current Conditions -  °F | °C
As of 11:55 AM on Sunday 28 Dec 2014 (Local Time) from KNBG Reporting Station
Haze Haze  
Wind Chill: 69°   Ceiling: 800
Heat Index: 69°   Visibility: 5mi
Dew Point: 63°   Wind: 7mph
Humidity: 81%   Direction: 340°NNW
Pressure: 30.05"   Gusts: NA
Location:  29.68°N, 90.1°W
Report Text: KNBG 281755Z 34006KT 5SM BR BKN008 BKN018 BKN250 21/17 A3005 RMK AO2 SLP174 T02060172 10244 20200 58016 $
Loading
Personal Weather Stations






























Interactive Weather Map New forecast layout! Learn more

10-Day Weather Forecast

Advertisements
Track Severe Weather on mobile